createdAt,value
2019-04-14T00:00:05.577Z,100924.42
2019-04-14T00:02:44.712Z,100921.80
2019-04-14T00:05:16.917Z,100919.60
2019-04-14T00:07:49.438Z,100924.80
2019-04-14T00:10:22.466Z,100927.47
2019-04-14T00:12:53.934Z,100918.36
2019-04-14T00:15:33.080Z,100921.41
2019-04-14T00:17:58.973Z,100919.66
2019-04-14T00:20:31.447Z,100914.88
2019-04-14T00:23:02.801Z,100915.73
2019-04-14T00:25:34.784Z,100911.89
2019-04-14T00:28:07.308Z,100914.05
2019-04-14T00:30:38.697Z,100914.06
2019-04-14T00:33:10.928Z,100909.27
2019-04-14T00:36:06.603Z,100903.20
2019-04-14T00:38:41.243Z,100901.03
2019-04-14T00:41:18.358Z,100898.00
2019-04-14T00:44:10.067Z,100899.30
2019-04-14T00:47:01.447Z,100893.66
2019-04-14T00:49:33.943Z,100899.28
2019-04-14T00:52:05.760Z,100894.08
2019-04-14T00:54:37.291Z,100888.39
2019-04-14T00:57:09.400Z,100891.00
2019-04-14T00:59:41.879Z,100894.44
2019-04-14T01:02:14.495Z,100897.47
2019-04-14T01:04:46.953Z,100897.40
2019-04-14T01:07:19.430Z,100899.52
2019-04-14T01:09:51.088Z,100895.63
2019-04-14T01:12:23.524Z,100897.81
2019-04-14T01:14:56.010Z,100891.73
2019-04-14T01:17:28.642Z,100893.79
2019-04-14T01:19:59.984Z,100892.11
2019-04-14T01:22:31.491Z,100894.30
2019-04-14T01:25:02.824Z,100894.70
2019-04-14T01:27:34.258Z,100892.90
2019-04-14T01:30:06.671Z,100898.56
2019-04-14T01:32:39.299Z,100890.73
2019-04-14T01:35:12.255Z,100892.52
2019-04-14T01:37:44.076Z,100893.81
2019-04-14T01:40:16.406Z,100891.70
2019-04-14T01:42:48.517Z,100889.98
2019-04-14T01:45:20.970Z,100889.97
2019-04-14T01:47:53.315Z,100890.37
2019-04-14T01:50:34.471Z,100893.81
2019-04-14T01:53:14.679Z,100892.09
2019-04-14T01:56:08.013Z,100901.20
2019-04-14T01:58:49.135Z,100902.52
2019-04-14T02:01:26.422Z,100898.10
2019-04-14T02:03:58.477Z,100900.73
2019-04-14T02:06:31.008Z,100902.42
2019-04-14T02:09:03.307Z,100904.19
2019-04-14T02:11:35.579Z,100898.96
2019-04-14T02:14:08.187Z,100899.41
2019-04-14T02:16:45.346Z,100912.01
2019-04-14T02:19:13.210Z,100914.14
2019-04-14T02:21:45.630Z,100917.20
2019-04-14T02:24:17.835Z,100917.19
2019-04-14T02:26:50.190Z,100917.96
2019-04-14T02:29:21.648Z,100915.84
2019-04-14T02:33:13.849Z,100914.13
2019-04-14T02:34:57.437Z,100919.80
2019-04-14T02:42:36.617Z,100915.05
2019-04-14T02:52:46.980Z,100918.47
2019-04-14T02:55:10.718Z,100921.56
2019-04-14T02:57:52.488Z,100923.70
2019-04-14T03:00:23.996Z,100918.95
2019-04-14T03:02:48.667Z,100918.95
2019-04-14T03:05:27.012Z,100917.22
2019-04-14T03:07:59.783Z,100913.73
2019-04-14T03:10:47.776Z,100910.27
2019-04-14T03:13:15.765Z,100912.88
2019-04-14T03:15:48.223Z,100911.95
2019-04-14T03:21:28.027Z,100918.56
2019-04-14T03:24:24.202Z,100918.98
2019-04-14T03:27:22.387Z,100913.34
2019-04-14T03:30:17.426Z,100913.28
2019-04-14T03:33:05.570Z,100919.34
2019-04-14T03:40:28.161Z,100923.27
2019-04-14T03:42:55.017Z,100918.14
2019-04-14T03:45:36.165Z,100917.17
2019-04-14T03:56:12.628Z,100913.32
2019-04-14T03:58:44.327Z,100902.02
2019-04-14T04:01:15.795Z,100904.61
2019-04-14T04:03:47.859Z,100899.44
2019-04-14T04:06:20.262Z,100906.78
2019-04-14T04:08:51.622Z,100911.16
2019-04-14T04:11:23.767Z,100910.77
2019-04-14T04:13:56.267Z,100912.52
2019-04-14T04:16:37.557Z,100922.09
2019-04-14T04:19:19.769Z,100925.17
2019-04-14T04:22:13.088Z,100933.04
2019-04-14T04:24:50.023Z,100935.22
2019-04-14T04:27:28.765Z,100934.79
2019-04-14T04:30:23.065Z,100938.62
2019-04-14T04:33:04.390Z,100936.93
2019-04-14T04:35:43.601Z,100938.23
2019-04-14T04:38:33.327Z,100938.67
2019-04-14T04:41:05.775Z,100935.18
2019-04-14T04:43:37.231Z,100941.23
2019-04-14T04:46:09.120Z,100933.34
2019-04-14T04:48:41.466Z,100932.13
2019-04-14T04:51:13.844Z,100938.20
2019-04-14T04:53:46.205Z,100940.77
2019-04-14T04:56:18.629Z,100939.91
2019-04-14T04:58:50.243Z,100942.09
2019-04-14T05:01:21.591Z,100952.94
2019-04-14T05:03:53.614Z,100955.12
2019-04-14T05:06:59.427Z,100957.27
2019-04-14T05:09:49.127Z,100962.07
2019-04-14T05:12:39.309Z,100967.72
2019-04-14T05:15:29.082Z,100974.24
2019-04-14T05:18:00.493Z,100972.98
2019-04-14T05:20:31.837Z,100977.30
2019-04-14T05:23:03.734Z,100972.96
2019-04-14T05:25:35.027Z,100981.20
2019-04-14T05:28:06.963Z,100982.95
2019-04-14T05:30:39.310Z,100980.70
2019-04-14T05:33:11.984Z,100985.50
2019-04-14T05:35:44.521Z,100987.67
2019-04-14T05:38:16.928Z,100987.65
2019-04-14T05:40:49.568Z,100988.16
2019-04-14T05:43:30.329Z,100993.76
2019-04-14T05:45:54.493Z,100994.67
2019-04-14T05:48:27.134Z,100995.11
2019-04-14T05:50:59.775Z,101001.14
2019-04-14T05:53:31.178Z,100998.95
2019-04-14T05:56:03.479Z,101004.17
2019-04-14T05:58:36.045Z,101008.02
2019-04-14T06:01:08.984Z,101011.89
2019-04-14T06:03:40.794Z,101010.63
2019-04-14T06:06:12.099Z,101009.81
2019-04-14T06:08:43.429Z,101008.06
2019-04-14T06:11:14.750Z,101008.06
2019-04-14T06:13:45.999Z,101012.41
2019-04-14T06:16:17.337Z,101008.06
2019-04-14T06:18:48.670Z,101014.57
2019-04-14T06:21:20.104Z,101006.72
2019-04-14T06:23:51.432Z,101018.02
2019-04-14T06:26:22.755Z,101011.02
2019-04-14T06:28:54.060Z,101011.45
2019-04-14T06:31:59.461Z,101013.13
2019-04-14T06:34:39.347Z,101026.17
2019-04-14T06:37:19.853Z,101025.28
2019-04-14T06:39:52.171Z,101026.13
2019-04-14T06:42:23.498Z,101023.48
2019-04-14T06:44:54.870Z,101022.20
2019-04-14T06:47:26.177Z,101025.68
2019-04-14T06:49:57.589Z,101024.38
2019-04-14T06:52:28.884Z,101026.13
2019-04-14T06:55:00.177Z,101020.42
2019-04-14T06:57:31.531Z,101021.72
2019-04-14T07:00:02.834Z,101021.61
2019-04-14T07:02:34.170Z,101022.80
2019-04-14T07:05:05.702Z,101025.81
2019-04-14T07:07:37.002Z,101030.95
2019-04-14T07:10:08.455Z,101033.45
2019-04-14T07:12:39.763Z,101035.06
2019-04-14T07:15:11.098Z,101034.94
2019-04-14T07:17:42.424Z,101029.10
2019-04-14T07:20:13.834Z,101035.28
2019-04-14T07:22:45.174Z,101036.58
2019-04-14T07:25:16.470Z,101038.98
2019-04-14T07:27:51.261Z,101038.78
2019-04-14T07:30:53.535Z,101044.16
2019-04-14T07:33:58.658Z,101041.54
2019-04-14T07:36:47.308Z,101049.55
2019-04-14T07:39:35.875Z,101057.39
2019-04-14T07:42:10.795Z,101062.49
2019-04-14T07:45:02.513Z,101057.83
2019-04-14T07:47:41.544Z,101049.63
2019-04-14T07:50:30.646Z,101055.36
2019-04-14T07:53:20.903Z,101057.30
2019-04-14T07:56:00.631Z,101053.69
2019-04-14T07:58:49.414Z,101049.48
2019-04-14T08:01:27.570Z,101056.46
2019-04-14T08:04:05.196Z,101062.76
2019-04-14T08:06:38.375Z,101055.07
2019-04-14T08:09:09.602Z,101049.83
2019-04-14T08:11:40.941Z,101054.37
2019-04-14T08:14:12.269Z,101044.98
2019-04-14T08:16:43.588Z,101055.11
2019-04-14T08:19:14.965Z,101055.44
2019-04-14T08:21:46.278Z,101059.57
2019-04-14T08:24:17.619Z,101052.20
2019-04-14T08:26:48.933Z,101054.24
2019-04-14T08:29:20.237Z,101055.97
2019-04-14T08:31:51.572Z,101057.44
2019-04-14T08:34:22.934Z,101067.86
2019-04-14T08:36:54.248Z,101062.85
2019-04-14T08:39:25.587Z,101065.04
2019-04-14T08:42:24.623Z,101068.20
2019-04-14T08:44:56.476Z,101067.19
2019-04-14T08:47:45.293Z,101064.69
2019-04-14T08:50:39.762Z,101066.42
2019-04-14T08:53:22.861Z,101067.52
2019-04-14T08:56:11.539Z,101058.85
2019-04-14T08:59:01.794Z,101063.72
2019-04-14T09:01:47.286Z,101064.97
2019-04-14T09:04:29.459Z,101064.57
2019-04-14T09:07:11.162Z,101065.62
2019-04-14T09:09:49.129Z,101064.61
2019-04-14T09:12:25.646Z,101065.06
2019-04-14T09:14:57.746Z,101069.73
2019-04-14T09:17:30.673Z,101064.05
2019-04-14T09:20:02.010Z,101072.64
2019-04-14T09:22:33.310Z,101075.28
2019-04-14T09:25:04.953Z,101070.83
2019-04-14T09:27:36.273Z,101076.25
2019-04-14T09:30:08.705Z,101075.46
2019-04-14T09:32:40.037Z,101081.84
2019-04-14T09:35:11.464Z,101071.91
2019-04-14T09:37:42.797Z,101084.09
2019-04-14T09:40:14.155Z,101084.67
2019-04-14T09:42:45.481Z,101086.01
2019-04-14T09:45:17.027Z,101079.81
2019-04-14T09:47:48.447Z,101074.25
2019-04-14T09:50:19.755Z,101072.91
2019-04-14T09:52:51.098Z,101075.67
2019-04-14T09:55:23.681Z,101077.32
2019-04-14T09:57:57.883Z,101080.25
2019-04-14T10:00:29.271Z,101078.13
2019-04-14T10:03:00.590Z,101083.87
2019-04-14T10:05:31.914Z,101076.11
2019-04-14T10:08:03.707Z,101077.73
2019-04-14T10:10:35.048Z,101076.92
2019-04-14T10:13:06.398Z,101081.52
2019-04-14T10:15:37.634Z,101080.43
2019-04-14T10:18:08.970Z,101076.53
2019-04-14T10:20:40.340Z,101062.72
2019-04-14T10:23:11.631Z,101064.27
2019-04-14T10:25:43.034Z,101075.12
2019-04-14T10:28:14.414Z,101074.33
2019-04-14T10:30:45.855Z,101074.25
2019-04-14T10:33:17.202Z,101076.07
2019-04-14T10:35:48.577Z,101068.66
2019-04-14T10:38:19.928Z,101077.15
2019-04-14T10:40:51.360Z,101075.12
2019-04-14T10:43:22.678Z,101068.86
2019-04-14T10:45:54.141Z,101076.15
2019-04-14T10:48:25.515Z,101079.16
2019-04-14T10:50:56.789Z,101066.28
2019-04-14T10:53:28.153Z,101076.83
2019-04-14T10:55:59.514Z,101075.27
2019-04-14T10:58:30.814Z,101075.34
2019-04-14T11:01:02.257Z,101067.69
2019-04-14T11:03:33.795Z,101071.69
2019-04-14T11:06:22.316Z,101069.67
2019-04-14T11:08:53.698Z,101067.22
2019-04-14T11:11:25.025Z,101079.95
2019-04-14T11:13:56.366Z,101073.55
2019-04-14T11:16:27.716Z,101064.03
2019-04-14T11:18:59.023Z,101075.97
2019-04-14T11:21:41.912Z,101070.45
2019-04-14T11:24:06.309Z,101064.09
2019-04-14T11:26:37.646Z,101071.67
2019-04-14T11:29:09.060Z,101068.52
2019-04-14T11:32:02.392Z,101056.54
2019-04-14T11:34:38.968Z,101061.84
2019-04-14T11:37:29.148Z,101058.58
2019-04-14T11:40:00.434Z,101059.64
2019-04-14T11:42:31.814Z,101060.75
2019-04-14T11:45:03.196Z,101068.52
2019-04-14T11:47:34.587Z,101060.37
2019-04-14T11:50:06.358Z,101055.93
2019-04-14T11:52:37.778Z,101056.02
2019-04-14T11:55:09.307Z,101060.67
2019-04-14T11:57:40.753Z,101056.14
2019-04-14T12:00:26.676Z,101060.16
2019-04-14T12:03:13.178Z,101061.91
2019-04-14T12:06:02.104Z,101056.80
2019-04-14T12:08:48.122Z,101062.88
2019-04-14T12:11:19.512Z,101066.47
2019-04-14T12:13:50.833Z,101070.95
2019-04-14T12:16:22.177Z,101071.02
2019-04-14T12:18:53.515Z,101067.83
2019-04-14T12:21:24.913Z,101078.93
2019-04-14T12:23:56.286Z,101068.20
2019-04-14T12:26:27.714Z,101071.83
2019-04-14T12:29:01.596Z,101076.18
2019-04-14T12:31:33.029Z,101082.75
2019-04-14T12:34:04.556Z,101085.70
2019-04-14T12:36:35.844Z,101091.88
2019-04-14T12:39:17.278Z,101090.13
2019-04-14T12:42:00.306Z,101087.78
2019-04-14T12:44:41.387Z,101089.88
2019-04-14T12:47:23.695Z,101087.63
2019-04-14T12:49:55.549Z,101080.08
2019-04-14T12:52:28.047Z,101075.82
2019-04-14T12:54:59.752Z,101073.22
2019-04-14T12:57:51.355Z,101071.88
2019-04-14T13:00:42.716Z,101072.48
2019-04-14T13:03:14.118Z,101086.47
2019-04-14T13:05:45.477Z,101069.53
2019-04-14T13:08:16.887Z,101070.89
2019-04-14T13:10:48.209Z,101075.51
2019-04-14T13:13:19.612Z,101067.86
2019-04-14T13:15:50.959Z,101077.39
2019-04-14T13:18:22.250Z,101062.63
2019-04-14T13:20:53.714Z,101073.98
2019-04-14T13:23:25.012Z,101067.14
2019-04-14T13:25:56.351Z,101061.02
2019-04-14T13:28:27.689Z,101064.87
2019-04-14T13:30:59.026Z,101066.73
2019-04-14T13:33:30.352Z,101055.83
2019-04-14T13:36:01.704Z,101051.22
2019-04-14T13:38:33.016Z,101051.09
2019-04-14T13:41:04.340Z,101051.19
2019-04-14T13:43:35.696Z,101052.30
2019-04-14T13:46:07.070Z,101053.42
2019-04-14T13:48:38.466Z,101055.42
2019-04-14T13:51:09.800Z,101060.84
2019-04-14T13:53:41.159Z,101054.90
2019-04-14T13:56:12.495Z,101049.27
2019-04-14T13:58:43.861Z,101058.33
2019-04-14T14:01:15.313Z,101059.34
2019-04-14T14:03:46.747Z,101047.91
2019-04-14T14:06:18.296Z,101048.98
2019-04-14T14:08:49.879Z,101043.66
2019-04-14T14:11:43.278Z,101043.01
2019-04-14T14:14:36.765Z,101041.36
2019-04-14T14:17:20.507Z,101037.78
2019-04-14T14:20:12.973Z,101042.69
2019-04-14T14:23:06.296Z,101038.33
2019-04-14T14:25:44.997Z,101035.20
2019-04-14T14:28:16.413Z,101040.02
2019-04-14T14:30:47.805Z,101030.34
2019-04-14T14:33:19.151Z,101035.11
2019-04-14T14:35:50.527Z,101030.13
2019-04-14T14:38:21.941Z,101030.94
2019-04-14T14:40:54.241Z,101030.30
2019-04-14T14:43:25.701Z,101023.64
2019-04-14T14:46:26.255Z,101026.95
2019-04-14T14:49:08.462Z,101025.53
2019-04-14T14:52:04.693Z,101027.13
2019-04-14T14:54:36.102Z,101016.44
2019-04-14T14:57:07.481Z,101021.25
2019-04-14T14:59:38.937Z,101017.86
2019-04-14T15:02:10.267Z,101017.78
2019-04-14T15:04:41.615Z,101016.53
2019-04-14T15:07:13.061Z,101018.42
2019-04-14T15:09:44.577Z,101020.91
2019-04-14T15:12:16.071Z,101027.41
2019-04-14T15:14:47.542Z,101027.66
2019-04-14T15:17:19.476Z,101024.41
2019-04-14T15:19:50.950Z,101014.34
2019-04-14T15:22:22.405Z,101014.28
2019-04-14T15:24:53.816Z,101028.27
2019-04-14T15:27:25.327Z,101021.22
2019-04-14T15:29:56.877Z,101025.05
2019-04-14T15:32:28.447Z,101027.23
2019-04-14T15:35:00.093Z,101024.49
2019-04-14T15:37:31.682Z,101031.62
2019-04-14T15:40:03.332Z,101024.01
2019-04-14T15:42:34.886Z,101036.17
2019-04-14T15:45:07.152Z,101043.46
2019-04-14T15:47:38.730Z,101048.33
2019-04-14T15:50:10.701Z,101035.33
2019-04-14T15:52:42.353Z,101050.80
2019-04-14T15:55:15.006Z,101051.91
2019-04-14T15:58:01.339Z,101051.79
2019-04-14T16:00:50.398Z,101058.97
2019-04-14T16:03:39.529Z,101063.69
2019-04-14T16:06:21.143Z,101060.12
2019-04-14T16:09:26.569Z,101065.64
2019-04-14T16:12:03.628Z,101067.06
2019-04-14T16:14:52.543Z,101075.64
2019-04-14T16:17:52.128Z,101064.80
2019-04-14T16:20:30.392Z,101071.90
2019-04-14T16:23:02.037Z,101078.64
2019-04-14T16:25:45.752Z,101077.83
2019-04-14T16:28:21.951Z,101081.03
2019-04-14T16:31:12.444Z,101080.47
2019-04-14T16:34:01.765Z,101083.48
2019-04-14T16:36:33.433Z,101088.02
2019-04-14T16:39:06.344Z,101084.56
2019-04-14T16:41:37.971Z,101085.61
2019-04-14T16:44:09.611Z,101082.93
2019-04-14T16:46:41.278Z,101084.98
2019-04-14T16:49:12.886Z,101082.41
2019-04-14T16:52:06.291Z,101093.52
2019-04-14T16:54:43.390Z,101087.30
2019-04-14T16:57:32.555Z,101091.34
2019-04-14T17:00:05.429Z,101100.41
2019-04-14T17:02:37.068Z,101107.94
2019-04-14T17:05:08.709Z,101105.88
2019-04-14T17:07:40.675Z,101109.59
2019-04-14T17:10:12.430Z,101122.50
2019-04-14T17:12:44.045Z,101126.71
2019-04-14T17:15:37.537Z,101126.73
2019-04-14T17:18:28.015Z,101126.02
2019-04-14T17:21:13.096Z,101128.16
2019-04-14T17:23:52.774Z,101127.36
2019-04-14T17:26:43.354Z,101128.09
2019-04-14T17:29:22.689Z,101132.61
2019-04-14T17:32:05.874Z,101132.53
2019-04-14T17:34:56.372Z,101137.98
2019-04-14T17:37:45.553Z,101137.09
2019-04-14T17:40:32.977Z,101142.70
2019-04-14T17:43:21.196Z,101142.13
2019-04-14T17:46:00.174Z,101141.80
2019-04-14T17:48:52.566Z,101149.25
2019-04-14T17:51:33.539Z,101149.67
2019-04-14T17:54:29.686Z,101149.48
2019-04-14T17:57:08.232Z,101157.80
2019-04-14T18:00:13.681Z,101162.21
2019-04-14T18:02:55.579Z,101164.50
2019-04-14T18:05:37.563Z,101165.72
2019-04-14T18:08:31.233Z,101161.67
2019-04-14T18:11:28.920Z,101168.47
2019-04-14T18:14:16.420Z,101166.88
2019-04-14T18:17:09.732Z,101163.91
2019-04-14T18:19:48.482Z,101168.19
2019-04-14T18:22:20.094Z,101165.95
2019-04-14T18:24:51.796Z,101170.92
2019-04-14T18:27:23.484Z,101167.73
2019-04-14T18:30:29.161Z,101169.10
2019-04-14T18:33:17.984Z,101169.10
2019-04-14T18:35:54.059Z,101171.88
2019-04-14T18:38:44.605Z,101174.89
2019-04-14T18:41:39.113Z,101172.42
2019-04-14T18:44:34.586Z,101174.28
2019-04-14T18:47:36.394Z,101182.93
2019-04-14T18:50:17.272Z,101182.59
2019-04-14T18:53:34.397Z,101182.25
2019-04-14T18:56:10.939Z,101184.59
2019-04-14T18:59:21.079Z,101181.42
2019-04-14T19:02:03.815Z,101187.31
2019-04-14T19:04:39.229Z,101185.67
2019-04-14T19:07:10.902Z,101190.04
2019-04-14T19:09:42.554Z,101192.52
2019-04-14T19:12:36.113Z,101186.30
2019-04-14T19:15:17.582Z,101188.97
2019-04-14T19:18:17.484Z,101195.48
2019-04-14T19:20:54.086Z,101201.36
2019-04-14T19:23:25.753Z,101208.52
2019-04-14T19:25:57.482Z,101218.28
2019-04-14T19:28:29.105Z,101222.45
2019-04-14T19:31:00.825Z,101220.70
2019-04-14T19:33:32.425Z,101218.20
2019-04-14T19:36:04.092Z,101221.84
2019-04-14T19:38:35.874Z,101224.23
2019-04-14T19:41:07.704Z,101227.33
2019-04-14T19:43:39.391Z,101233.37
2019-04-14T19:46:11.086Z,101228.56
2019-04-14T19:48:42.742Z,101235.84
2019-04-14T19:51:14.404Z,101236.24
2019-04-14T19:53:46.030Z,101238.23
2019-04-14T19:56:17.652Z,101239.30
2019-04-14T19:58:49.273Z,101232.46
2019-04-14T20:01:20.927Z,101236.39
2019-04-14T20:03:52.569Z,101238.58
2019-04-14T20:06:24.170Z,101250.48
2019-04-14T20:08:55.841Z,101260.14
2019-04-14T20:11:27.534Z,101259.30
2019-04-14T20:13:59.188Z,101262.33
2019-04-14T20:16:48.115Z,101262.50
2019-04-14T20:19:29.833Z,101256.02
2019-04-14T20:22:32.590Z,101269.19
2019-04-14T20:25:34.012Z,101272.95
2019-04-14T20:28:27.193Z,101269.09
2019-04-14T20:31:16.214Z,101268.28
2019-04-14T20:33:48.015Z,101270.03
2019-04-14T20:36:19.522Z,101275.44
2019-04-14T20:38:51.143Z,101273.19
2019-04-14T20:41:22.806Z,101275.70
2019-04-14T20:43:54.284Z,101280.11
2019-04-14T20:46:25.803Z,101281.02
2019-04-14T20:48:57.233Z,101281.05
2019-04-14T20:51:28.645Z,101286.55
2019-04-14T20:54:00.105Z,101281.48
2019-04-14T20:56:31.479Z,101276.68
2019-04-14T20:59:02.825Z,101283.56
2019-04-14T21:01:36.167Z,101277.52
2019-04-14T21:04:29.508Z,101279.27
2019-04-14T21:07:25.499Z,101278.83
2019-04-14T21:10:14.358Z,101285.91
2019-04-14T21:12:54.666Z,101290.75
2019-04-14T21:15:36.508Z,101291.63
2019-04-14T21:18:11.687Z,101298.48
2019-04-14T21:20:53.866Z,101296.83
2019-04-14T21:23:39.848Z,101296.80
2019-04-14T21:26:15.829Z,101298.82
2019-04-14T21:29:09.597Z,101300.27
2019-04-14T21:31:46.290Z,101299.73
2019-04-14T21:34:35.010Z,101294.45
2019-04-14T21:37:34.396Z,101283.56
2019-04-14T21:40:34.251Z,101281.35
2019-04-14T21:43:05.582Z,101279.03
2019-04-14T21:45:36.931Z,101277.08
2019-04-14T21:48:08.258Z,101275.41
2019-04-14T21:50:39.959Z,101272.88
2019-04-14T21:53:11.288Z,101275.16
2019-04-14T21:55:43.504Z,101267.58
2019-04-14T21:58:29.169Z,101263.56
2019-04-14T22:01:54.321Z,101266.62
2019-04-14T22:04:50.702Z,101263.19
2019-04-14T22:07:47.064Z,101253.27
2019-04-14T22:10:35.796Z,101259.88
2019-04-14T22:13:07.258Z,101250.86
2019-04-14T22:15:38.648Z,101256.01
2019-04-14T22:18:09.930Z,101255.20
2019-04-14T22:20:41.226Z,101254.88
2019-04-14T22:23:13.207Z,101257.11
2019-04-14T22:25:44.546Z,101260.69
2019-04-14T22:28:15.848Z,101258.83
2019-04-14T22:30:47.141Z,101257.95
2019-04-14T22:33:18.502Z,101268.94
2019-04-14T22:35:49.832Z,101264.97
2019-04-14T22:38:21.215Z,101263.60
2019-04-14T22:40:52.535Z,101260.14
2019-04-14T22:43:23.923Z,101254.96
2019-04-14T22:45:55.176Z,101260.43
2019-04-14T22:48:26.468Z,101256.47
2019-04-14T22:50:57.810Z,101256.09
2019-04-14T22:53:29.081Z,101256.56
2019-04-14T22:56:00.364Z,101268.80
2019-04-14T22:58:31.706Z,101271.48
2019-04-14T23:01:08.978Z,101269.36
2019-04-14T23:04:11.370Z,101271.89
2019-04-14T23:07:01.553Z,101279.33
2019-04-14T23:09:54.911Z,101280.62
2019-04-14T23:12:34.005Z,101277.42
2019-04-14T23:15:22.785Z,101281.40
2019-04-14T23:18:14.540Z,101283.58
2019-04-14T23:21:06.601Z,101284.02
2019-04-14T23:24:04.239Z,101285.91
2019-04-14T23:26:35.563Z,101283.31
2019-04-14T23:29:06.887Z,101263.13
2019-04-14T23:31:38.153Z,101258.83
2019-04-14T23:34:09.491Z,101256.19
2019-04-14T23:36:40.828Z,101260.58
2019-04-14T23:39:12.997Z,101269.34
2019-04-14T23:41:44.279Z,101264.64
2019-04-14T23:44:15.585Z,101267.66
2019-04-14T23:46:46.912Z,101266.33
2019-04-14T23:49:18.221Z,101262.81
2019-04-14T23:51:49.585Z,101262.78
2019-04-14T23:54:20.859Z,101258.41
2019-04-14T23:57:04.410Z,101262.45
2019-04-14T23:59:25.156Z,101265.48
